createdAt,value
2022-08-26T00:01:28.983Z,25.10
2022-08-26T00:03:32.856Z,25.07
2022-08-26T00:05:35.714Z,25.05
2022-08-26T00:07:38.528Z,25.05
2022-08-26T00:09:41.462Z,25.13
2022-08-26T00:11:50.053Z,25.08
2022-08-26T00:13:53.917Z,24.99
2022-08-26T00:15:56.995Z,25.01
2022-08-26T00:18:01.279Z,25.00
2022-08-26T00:20:04.360Z,24.84
2022-08-26T00:22:07.234Z,24.88
2022-08-26T00:24:10.345Z,24.96
2022-08-26T00:26:13.403Z,24.90
2022-08-26T00:28:17.075Z,24.85
2022-08-26T00:30:28.411Z,24.77
2022-08-26T00:32:31.485Z,24.76
2022-08-26T00:34:36.042Z,24.78
2022-08-26T00:36:39.806Z,24.76
2022-08-26T00:38:44.061Z,24.71
2022-08-26T00:40:52.994Z,24.71
2022-08-26T00:42:57.207Z,24.71
2022-08-26T00:45:00.065Z,24.68
2022-08-26T00:47:06.626Z,24.66
2022-08-26T00:49:14.505Z,24.67
2022-08-26T00:51:23.880Z,24.69
2022-08-26T00:53:32.165Z,24.72
2022-08-26T00:55:40.322Z,24.67
2022-08-26T00:57:43.970Z,24.61
2022-08-26T00:59:52.317Z,24.61
2022-08-26T01:01:55.317Z,24.54
2022-08-26T01:04:00.818Z,24.50
2022-08-26T01:06:06.634Z,24.41
2022-08-26T01:08:16.873Z,24.40
2022-08-26T01:10:23.475Z,24.38
2022-08-26T01:12:30.001Z,24.33
2022-08-26T01:14:36.703Z,24.32
2022-08-26T01:16:39.912Z,24.35
2022-08-26T01:18:46.753Z,24.35
2022-08-26T01:20:58.320Z,24.36
2022-08-26T01:23:06.983Z,24.35
2022-08-26T01:25:12.153Z,24.28
2022-08-26T01:27:19.575Z,24.27
2022-08-26T01:29:22.754Z,24.28
2022-08-26T01:31:29.627Z,24.28
2022-08-26T01:33:42.051Z,24.24
2022-08-26T01:35:46.083Z,24.22
2022-08-26T01:37:50.561Z,24.17
2022-08-26T01:39:57.898Z,24.08
2022-08-26T01:42:03.314Z,24.03
2022-08-26T01:44:09.713Z,24.07
2022-08-26T01:46:14.210Z,24.08
2022-08-26T01:48:21.924Z,23.99
2022-08-26T01:50:30.307Z,24.06
2022-08-26T01:52:36.774Z,24.05
2022-08-26T01:54:39.759Z,24.05
2022-08-26T01:56:44.426Z,24.11
2022-08-26T01:58:51.615Z,24.16
2022-08-26T02:00:55.128Z,24.17
2022-08-26T02:03:12.942Z,24.20
2022-08-26T02:05:20.247Z,24.25
2022-08-26T02:07:24.283Z,24.21
2022-08-26T02:09:29.671Z,24.21
2022-08-26T02:11:34.820Z,24.16
2022-08-26T02:13:45.877Z,24.04
2022-08-26T02:15:49.678Z,23.94
2022-08-26T02:17:53.162Z,23.92
2022-08-26T02:19:57.272Z,24.00
2022-08-26T02:22:03.961Z,24.01
2022-08-26T02:24:12.073Z,24.06
2022-08-26T02:26:18.045Z,24.02
2022-08-26T02:28:22.307Z,24.00
2022-08-26T02:30:33.430Z,23.93
2022-08-26T02:32:37.351Z,23.94
2022-08-26T02:34:43.084Z,23.90
2022-08-26T02:36:46.032Z,23.88
2022-08-26T02:38:49.261Z,23.92
2022-08-26T02:40:54.885Z,23.88
2022-08-26T02:42:58.183Z,23.88
2022-08-26T02:45:01.187Z,23.83
2022-08-26T02:47:07.414Z,23.80
2022-08-26T02:49:10.703Z,23.81
2022-08-26T02:51:13.498Z,23.76
2022-08-26T02:53:18.013Z,23.73
2022-08-26T02:55:27.485Z,23.75
2022-08-26T02:57:32.018Z,23.77
2022-08-26T02:59:35.925Z,23.72
2022-08-26T03:01:39.070Z,23.70
2022-08-26T03:03:43.292Z,23.72
2022-08-26T03:05:46.140Z,23.69
2022-08-26T03:07:49.823Z,23.73
2022-08-26T03:09:53.578Z,23.75
2022-08-26T03:11:56.641Z,23.72
2022-08-26T03:14:00.540Z,23.78
2022-08-26T03:16:04.954Z,23.81
2022-08-26T03:18:08.576Z,23.82
2022-08-26T03:20:13.615Z,23.78
2022-08-26T03:22:19.345Z,23.76
2022-08-26T03:24:23.372Z,23.78
2022-08-26T03:26:28.911Z,23.78
2022-08-26T03:28:32.189Z,23.65
2022-08-26T03:30:45.343Z,23.68
2022-08-26T03:32:48.642Z,23.73
2022-08-26T03:34:51.509Z,23.75
2022-08-26T03:36:55.745Z,23.75
2022-08-26T03:38:59.155Z,23.73
2022-08-26T03:41:02.049Z,23.78
2022-08-26T03:43:09.741Z,23.90
2022-08-26T03:45:15.334Z,23.99
2022-08-26T03:47:18.279Z,24.02
2022-08-26T03:49:21.192Z,24.03
2022-08-26T03:51:24.651Z,24.04
2022-08-26T03:53:28.933Z,24.00
2022-08-26T03:55:33.020Z,23.88
2022-08-26T03:57:36.452Z,23.87
2022-08-26T03:59:41.281Z,23.90
2022-08-26T04:01:44.323Z,23.92
2022-08-26T04:04:00.171Z,23.96
2022-08-26T04:06:04.056Z,24.01
2022-08-26T04:08:07.264Z,23.98
2022-08-26T04:10:14.020Z,23.97
2022-08-26T04:12:18.307Z,23.96
2022-08-26T04:14:25.007Z,23.92
2022-08-26T04:16:29.651Z,23.89
2022-08-26T04:18:36.867Z,23.86
2022-08-26T04:20:40.415Z,23.83
2022-08-26T04:22:43.367Z,23.79
2022-08-26T04:24:46.355Z,23.83
2022-08-26T04:26:50.862Z,23.84
2022-08-26T04:28:55.798Z,23.85
2022-08-26T04:30:59.082Z,23.84
2022-08-26T04:33:04.528Z,23.85
2022-08-26T04:35:16.170Z,23.81
2022-08-26T04:37:19.730Z,23.82
2022-08-26T04:39:25.304Z,23.78
2022-08-26T04:41:31.530Z,23.82
2022-08-26T04:43:36.931Z,23.85
2022-08-26T04:45:41.685Z,23.84
2022-08-26T04:47:44.580Z,23.84
2022-08-26T04:49:47.395Z,23.84
2022-08-26T04:51:50.267Z,23.86
2022-08-26T04:53:53.483Z,23.85
2022-08-26T04:55:56.860Z,23.85
2022-08-26T04:58:00.856Z,23.84
2022-08-26T05:00:06.310Z,23.86
2022-08-26T05:02:09.141Z,23.83
2022-08-26T05:04:12.353Z,23.85
2022-08-26T05:06:20.530Z,23.85
2022-08-26T05:08:25.241Z,23.88
2022-08-26T05:10:27.393Z,23.85
2022-08-26T05:12:31.463Z,23.84
2022-08-26T05:14:34.634Z,23.84
2022-08-26T05:16:40.545Z,23.84
2022-08-26T05:18:44.910Z,23.81
2022-08-26T05:20:54.695Z,23.84
2022-08-26T05:22:57.831Z,23.79
2022-08-26T05:25:00.794Z,23.83
2022-08-26T05:27:03.917Z,23.86
2022-08-26T05:29:14.862Z,23.91
2022-08-26T05:31:22.432Z,23.91
2022-08-26T05:33:26.872Z,23.93
2022-08-26T05:35:31.960Z,23.86
2022-08-26T05:37:34.771Z,23.91
2022-08-26T05:39:38.383Z,23.93
2022-08-26T05:41:44.761Z,23.94
2022-08-26T05:43:48.231Z,23.94
2022-08-26T05:45:52.018Z,23.90
2022-08-26T05:47:55.181Z,23.88
2022-08-26T05:50:00.510Z,23.88
2022-08-26T05:52:03.593Z,23.83
2022-08-26T05:54:07.117Z,23.81
2022-08-26T05:56:12.619Z,23.75
2022-08-26T05:58:17.434Z,23.82
2022-08-26T06:00:21.113Z,23.83
2022-08-26T06:02:24.453Z,23.80
2022-08-26T06:04:28.614Z,23.84
2022-08-26T06:06:35.956Z,23.95
2022-08-26T06:08:39.018Z,24.02
2022-08-26T06:10:47.636Z,24.03
2022-08-26T06:12:51.306Z,24.02
2022-08-26T06:14:54.945Z,24.03
2022-08-26T06:16:58.106Z,24.01
2022-08-26T06:19:02.765Z,23.97
2022-08-26T06:21:15.094Z,23.98
2022-08-26T06:23:37.353Z,24.01
2022-08-26T06:25:43.443Z,24.08
2022-08-26T06:27:46.291Z,24.15
2022-08-26T06:29:49.118Z,24.19
2022-08-26T06:31:52.540Z,24.26
2022-08-26T06:33:56.139Z,24.14
2022-08-26T06:36:01.000Z,23.99
2022-08-26T06:38:03.870Z,23.95
2022-08-26T06:40:09.974Z,23.91
2022-08-26T06:42:14.478Z,23.88
2022-08-26T06:44:18.981Z,23.92
2022-08-26T06:46:23.022Z,24.00
2022-08-26T06:48:28.974Z,23.97
2022-08-26T06:50:31.877Z,23.99
2022-08-26T06:52:34.706Z,24.03
2022-08-26T06:54:43.002Z,24.13
2022-08-26T06:56:47.916Z,24.16
2022-08-26T06:58:51.835Z,24.23
2022-08-26T07:00:54.645Z,24.29
2022-08-26T07:02:57.563Z,24.36
2022-08-26T07:05:00.511Z,24.42
2022-08-26T07:07:03.347Z,24.44
2022-08-26T07:09:09.707Z,24.33
2022-08-26T07:11:13.406Z,24.32
2022-08-26T07:13:18.169Z,24.40
2022-08-26T07:15:35.760Z,24.45
2022-08-26T07:17:38.941Z,24.47
2022-08-26T07:19:43.287Z,24.43
2022-08-26T07:21:46.118Z,24.37
2022-08-26T07:23:50.586Z,24.35
2022-08-26T07:25:53.428Z,24.43
2022-08-26T07:27:56.308Z,24.46
2022-08-26T07:30:01.019Z,24.55
2022-08-26T07:32:06.387Z,24.67
2022-08-26T07:34:10.483Z,24.74
2022-08-26T07:36:15.135Z,24.66
2022-08-26T07:38:17.956Z,24.65
2022-08-26T07:40:21.725Z,24.61
2022-08-26T07:42:25.334Z,24.65
2022-08-26T07:44:28.617Z,24.64
2022-08-26T07:46:32.902Z,24.74
2022-08-26T07:48:37.096Z,24.82
2022-08-26T07:50:49.149Z,24.83
2022-08-26T07:52:53.540Z,24.89
2022-08-26T07:54:57.965Z,24.83
2022-08-26T07:57:00.816Z,24.77
2022-08-26T07:59:13.576Z,24.74
2022-08-26T08:01:18.157Z,24.78
2022-08-26T08:03:23.126Z,24.82
2022-08-26T08:05:33.256Z,24.94
2022-08-26T08:07:44.145Z,24.94
2022-08-26T08:09:49.436Z,24.97
2022-08-26T08:11:52.895Z,24.95
2022-08-26T08:13:56.924Z,24.95
2022-08-26T08:16:00.541Z,25.03
2022-08-26T08:18:03.444Z,25.15
2022-08-26T08:20:09.663Z,25.04
2022-08-26T08:22:17.471Z,25.03
2022-08-26T08:24:23.006Z,24.91
2022-08-26T08:26:27.163Z,24.93
2022-08-26T08:28:30.126Z,25.09
2022-08-26T08:30:33.194Z,25.13
2022-08-26T08:32:39.241Z,25.18
2022-08-26T08:36:53.543Z,25.53
2022-08-26T08:38:57.069Z,25.51
2022-08-26T08:41:01.226Z,25.40
2022-08-26T08:43:11.583Z,25.50
2022-08-26T08:45:18.934Z,25.65
2022-08-26T08:47:30.582Z,25.59
2022-08-26T08:49:35.505Z,25.56
2022-08-26T08:51:44.145Z,25.59
2022-08-26T08:53:54.831Z,25.62
2022-08-26T08:56:06.038Z,25.78
2022-08-26T08:58:19.632Z,25.80
2022-08-26T09:00:30.649Z,25.89
2022-08-26T09:02:38.542Z,25.89
2022-08-26T09:05:14.949Z,25.91
2022-08-26T09:07:21.819Z,25.90
2022-08-26T09:09:34.113Z,25.98
2022-08-26T09:11:37.741Z,26.13
2022-08-26T09:13:45.651Z,26.34
2022-08-26T09:15:59.013Z,26.50
2022-08-26T09:18:10.995Z,26.72
2022-08-26T09:20:21.926Z,26.68
2022-08-26T09:22:32.518Z,26.85
2022-08-26T09:24:48.512Z,26.88
2022-08-26T09:26:52.737Z,26.86
2022-08-26T09:28:58.898Z,26.92
2022-08-26T09:31:11.481Z,27.02
2022-08-26T09:33:18.836Z,26.91
2022-08-26T09:35:30.881Z,26.67
2022-08-26T09:37:36.706Z,26.49
2022-08-26T09:39:41.277Z,26.48
2022-08-26T09:41:44.191Z,26.44
2022-08-26T09:44:14.641Z,26.46
2022-08-26T09:46:23.317Z,26.62
2022-08-26T09:48:30.429Z,26.77
2022-08-26T09:50:36.180Z,26.80
2022-08-26T09:52:40.635Z,27.05
2022-08-26T09:55:01.203Z,27.06
2022-08-26T09:57:31.010Z,27.04
2022-08-26T09:59:33.916Z,27.15
2022-08-26T10:01:41.833Z,27.22
2022-08-26T10:03:45.098Z,27.37
2022-08-26T10:06:03.708Z,27.55
2022-08-26T10:08:20.976Z,27.50
2022-08-26T10:10:31.947Z,27.59
2022-08-26T10:12:38.615Z,27.71
2022-08-26T10:14:47.190Z,27.46
2022-08-26T10:16:56.599Z,27.28
2022-08-26T10:19:05.717Z,27.32
2022-08-26T10:21:13.146Z,27.51
2022-08-26T10:23:19.701Z,27.71
2022-08-26T10:25:32.556Z,28.12
2022-08-26T10:27:52.777Z,28.09
2022-08-26T10:30:03.633Z,28.19
2022-08-26T10:32:13.816Z,28.50
2022-08-26T10:34:18.243Z,28.55
2022-08-26T10:37:05.060Z,28.50
2022-08-26T10:39:07.659Z,28.53
2022-08-26T10:41:18.221Z,28.58
2022-08-26T10:43:25.550Z,28.62
2022-08-26T10:45:43.689Z,28.67
2022-08-26T10:47:53.090Z,28.79
2022-08-26T10:50:03.303Z,28.79
2022-08-26T10:52:16.426Z,28.81
2022-08-26T10:54:27.039Z,28.84
2022-08-26T10:56:41.222Z,28.89
2022-08-26T10:59:00.763Z,29.04
2022-08-26T11:01:28.458Z,29.22
2022-08-26T11:03:40.045Z,29.25
2022-08-26T11:05:43.096Z,29.20
2022-08-26T11:07:48.352Z,29.37
2022-08-26T11:09:52.447Z,29.20
2022-08-26T11:11:57.131Z,29.32
2022-08-26T11:14:02.901Z,29.38
2022-08-26T11:16:08.099Z,29.35
2022-08-26T11:18:13.314Z,29.32
2022-08-26T11:20:36.032Z,29.38
2022-08-26T11:22:48.085Z,29.55
2022-08-26T11:25:13.307Z,29.72
2022-08-26T11:28:07.518Z,29.98
2022-08-26T11:30:42.654Z,30.16
2022-08-26T11:32:49.045Z,30.31
2022-08-26T11:34:56.768Z,30.25
2022-08-26T11:37:02.505Z,30.25
2022-08-26T11:39:18.726Z,30.18
2022-08-26T11:41:29.039Z,30.14
2022-08-26T11:43:33.756Z,30.24
2022-08-26T11:45:39.838Z,30.22
2022-08-26T11:47:42.950Z,30.28
2022-08-26T11:49:46.412Z,30.63
2022-08-26T11:51:49.760Z,30.58
2022-08-26T11:53:53.735Z,30.70
2022-08-26T11:55:59.194Z,30.59
2022-08-26T11:58:04.873Z,30.56
2022-08-26T12:00:13.571Z,30.57
2022-08-26T12:02:19.539Z,30.84
2022-08-26T12:04:29.578Z,30.77
2022-08-26T12:06:37.691Z,30.86
2022-08-26T12:08:48.274Z,30.94
2022-08-26T12:11:03.712Z,30.92
2022-08-26T12:13:08.089Z,30.97
2022-08-26T12:15:16.444Z,31.05
2022-08-26T12:17:28.460Z,31.05
2022-08-26T12:19:33.770Z,31.02
2022-08-26T12:21:37.263Z,31.08
2022-08-26T12:23:43.607Z,31.10
2022-08-26T12:25:46.809Z,31.10
2022-08-26T12:27:54.062Z,31.01
2022-08-26T12:30:08.315Z,31.14
2022-08-26T12:32:14.131Z,31.09
2022-08-26T12:34:19.331Z,30.94
2022-08-26T12:36:25.687Z,31.18
2022-08-26T12:38:29.802Z,30.92
2022-08-26T12:40:35.814Z,31.01
2022-08-26T12:42:44.413Z,31.26
2022-08-26T12:44:52.977Z,31.40
2022-08-26T12:47:03.250Z,31.66
2022-08-26T12:49:06.212Z,31.49
2022-08-26T12:51:20.713Z,31.35
2022-08-26T12:53:24.681Z,31.39
2022-08-26T12:55:37.172Z,31.59
2022-08-26T12:57:40.174Z,31.50
2022-08-26T12:59:43.052Z,31.15
2022-08-26T13:01:46.745Z,31.00
2022-08-26T13:03:51.863Z,31.10
2022-08-26T13:06:16.069Z,31.28
2022-08-26T13:08:27.451Z,31.35
2022-08-26T13:10:43.024Z,31.45
2022-08-26T13:12:46.716Z,31.41
2022-08-26T13:14:50.388Z,31.43
2022-08-26T13:16:54.216Z,31.37
2022-08-26T13:18:59.778Z,31.28
2022-08-26T13:21:12.090Z,31.20
2022-08-26T13:23:15.371Z,31.19
2022-08-26T13:25:19.614Z,31.17
2022-08-26T13:27:26.103Z,31.21
2022-08-26T13:29:29.067Z,31.26
2022-08-26T13:31:35.509Z,31.24
2022-08-26T13:33:38.618Z,31.15
2022-08-26T13:35:42.287Z,31.00
2022-08-26T13:37:47.101Z,30.91
2022-08-26T13:39:50.760Z,31.09
2022-08-26T13:41:54.364Z,31.18
2022-08-26T13:43:57.341Z,31.26
2022-08-26T13:46:02.512Z,31.55
2022-08-26T13:48:06.405Z,31.56
2022-08-26T13:50:09.691Z,31.59
2022-08-26T13:52:12.719Z,31.74
2022-08-26T13:54:18.149Z,31.91
2022-08-26T13:56:23.479Z,31.90
2022-08-26T13:58:26.911Z,31.97
2022-08-26T14:00:33.277Z,32.07
2022-08-26T14:02:36.267Z,32.17
2022-08-26T14:04:39.112Z,32.10
2022-08-26T14:06:42.350Z,32.02
2022-08-26T14:08:45.279Z,32.15
2022-08-26T14:10:49.854Z,32.25
2022-08-26T14:12:53.361Z,32.08
2022-08-26T14:14:56.194Z,32.21
2022-08-26T14:17:00.431Z,32.19
2022-08-26T14:19:05.467Z,32.17
2022-08-26T14:21:10.218Z,32.31
2022-08-26T14:23:14.409Z,32.35
2022-08-26T14:25:17.594Z,32.47
2022-08-26T14:27:21.859Z,32.48
2022-08-26T14:29:24.685Z,32.60
2022-08-26T14:31:29.049Z,32.34
2022-08-26T14:33:38.082Z,32.19
2022-08-26T14:35:41.068Z,32.16
2022-08-26T14:37:51.505Z,31.95
2022-08-26T14:39:54.637Z,31.85
2022-08-26T14:41:57.915Z,31.80
2022-08-26T14:44:06.854Z,31.81
2022-08-26T14:46:09.738Z,31.70
2022-08-26T14:48:12.742Z,31.68
2022-08-26T14:50:17.415Z,31.49
2022-08-26T14:52:20.419Z,31.51
2022-08-26T14:54:22.374Z,31.55
2022-08-26T14:56:25.473Z,31.56
2022-08-26T14:58:34.944Z,31.50
2022-08-26T15:00:39.703Z,31.66
2022-08-26T15:02:43.860Z,31.65
2022-08-26T15:04:46.875Z,31.65
2022-08-26T15:06:50.627Z,31.68
2022-08-26T15:08:54.379Z,31.62
2022-08-26T15:10:57.451Z,31.63
2022-08-26T15:13:00.981Z,31.70
2022-08-26T15:15:04.146Z,31.63
2022-08-26T15:17:08.376Z,31.45
2022-08-26T15:19:11.308Z,31.33
2022-08-26T15:21:14.247Z,31.25
2022-08-26T15:23:17.158Z,31.12
2022-08-26T15:25:20.639Z,30.93
2022-08-26T15:27:23.490Z,30.82
2022-08-26T15:29:26.334Z,30.76
2022-08-26T15:31:31.871Z,30.76
2022-08-26T15:33:37.745Z,30.59
2022-08-26T15:35:41.012Z,30.51
2022-08-26T15:37:45.977Z,30.26
2022-08-26T15:39:49.109Z,30.18
2022-08-26T15:41:52.058Z,30.13
2022-08-26T15:43:54.959Z,30.03
2022-08-26T15:45:58.666Z,30.06
2022-08-26T15:48:02.133Z,29.92
2022-08-26T15:50:08.399Z,29.85
2022-08-26T15:52:11.669Z,29.71
2022-08-26T15:54:16.549Z,29.56
2022-08-26T15:56:19.907Z,29.62
2022-08-26T15:58:24.109Z,29.65
2022-08-26T16:00:29.217Z,29.67
2022-08-26T16:02:32.501Z,29.78
2022-08-26T16:04:35.466Z,29.89
2022-08-26T16:06:41.080Z,29.79
2022-08-26T16:08:45.048Z,29.75
2022-08-26T16:10:50.796Z,29.53
2022-08-26T16:12:53.854Z,29.63
2022-08-26T16:14:57.296Z,29.52
2022-08-26T16:17:00.089Z,29.42
2022-08-26T16:19:07.279Z,29.35
2022-08-26T16:21:13.689Z,29.22
2022-08-26T16:23:18.806Z,29.02
2022-08-26T16:25:21.846Z,28.87
2022-08-26T16:27:24.764Z,28.81
2022-08-26T16:29:28.216Z,28.82
2022-08-26T16:31:31.252Z,28.70
2022-08-26T16:33:34.209Z,28.59
2022-08-26T16:35:37.038Z,28.75
2022-08-26T16:37:40.216Z,28.49
2022-08-26T16:39:44.951Z,28.39
2022-08-26T16:41:48.134Z,28.39
2022-08-26T16:43:53.812Z,28.38
2022-08-26T16:45:56.867Z,28.34
2022-08-26T16:47:59.994Z,28.08
2022-08-26T16:50:02.939Z,27.96
2022-08-26T16:52:06.273Z,28.03
2022-08-26T16:54:09.531Z,28.02
2022-08-26T16:56:15.449Z,27.93
2022-08-26T16:58:21.941Z,27.87
2022-08-26T17:00:28.261Z,28.00
2022-08-26T17:02:31.122Z,28.08
2022-08-26T17:04:34.203Z,27.98
2022-08-26T17:06:38.152Z,27.79
2022-08-26T17:08:42.734Z,27.78
2022-08-26T17:10:45.638Z,27.80
2022-08-26T17:12:50.339Z,27.75
2022-08-26T17:14:53.402Z,27.69
2022-08-26T17:16:57.001Z,27.67
2022-08-26T17:19:00.730Z,27.58
2022-08-26T17:21:06.167Z,27.44
2022-08-26T17:23:09.396Z,27.46
2022-08-26T17:25:15.276Z,27.38
2022-08-26T17:27:18.387Z,27.43
2022-08-26T17:29:22.715Z,27.51
2022-08-26T17:31:27.006Z,27.32
2022-08-26T17:33:30.502Z,27.24
2022-08-26T17:35:33.871Z,27.32
2022-08-26T17:37:36.895Z,27.31
2022-08-26T17:39:43.866Z,27.30
2022-08-26T17:41:47.442Z,27.31
2022-08-26T17:43:50.373Z,27.34
2022-08-26T17:45:58.937Z,27.23
2022-08-26T17:48:11.060Z,27.21
2022-08-26T17:50:16.084Z,27.28
2022-08-26T17:52:18.875Z,27.35
2022-08-26T17:54:21.718Z,27.42
2022-08-26T17:56:26.294Z,27.29
2022-08-26T17:58:29.157Z,27.17
2022-08-26T18:00:32.003Z,27.20
2022-08-26T18:02:37.573Z,27.22
2022-08-26T18:04:40.509Z,27.23
2022-08-26T18:06:44.463Z,27.24
2022-08-26T18:08:47.399Z,27.28
2022-08-26T18:10:51.231Z,27.18
2022-08-26T18:12:55.643Z,27.18
2022-08-26T18:14:58.733Z,27.11
2022-08-26T18:17:01.974Z,27.08
2022-08-26T18:19:07.279Z,26.98
2022-08-26T18:21:13.289Z,26.98
2022-08-26T18:23:16.322Z,26.89
2022-08-26T18:25:19.493Z,26.85
2022-08-26T18:27:22.530Z,26.77
2022-08-26T18:29:29.045Z,26.71
2022-08-26T18:31:32.683Z,26.69
2022-08-26T18:33:35.790Z,26.75
2022-08-26T18:35:41.573Z,26.60
2022-08-26T18:37:45.687Z,26.56
2022-08-26T18:39:48.635Z,26.55
2022-08-26T18:41:53.294Z,26.53
2022-08-26T18:43:57.416Z,26.48
2022-08-26T18:46:04.703Z,26.48
2022-08-26T18:48:07.803Z,26.57
2022-08-26T18:50:11.922Z,26.55
2022-08-26T18:52:16.476Z,26.44
2022-08-26T18:56:29.870Z,26.26
2022-08-26T18:58:32.742Z,26.24
2022-08-26T19:00:35.673Z,26.30
2022-08-26T19:02:39.415Z,26.28
2022-08-26T19:04:42.575Z,26.38
2022-08-26T19:06:48.049Z,26.20
2022-08-26T19:08:53.104Z,26.17
2022-08-26T19:10:56.199Z,26.01
2022-08-26T19:13:02.371Z,26.08
2022-08-26T19:15:06.447Z,26.34
2022-08-26T19:17:09.913Z,26.02
2022-08-26T19:19:13.439Z,25.89
2022-08-26T19:21:16.417Z,25.85
2022-08-26T19:23:31.329Z,25.78
2022-08-26T19:25:41.285Z,25.82
2022-08-26T19:27:44.303Z,25.87
2022-08-26T19:29:47.680Z,25.89
2022-08-26T19:31:50.708Z,25.68
2022-08-26T19:33:53.622Z,25.76
2022-08-26T19:35:57.031Z,25.90
2022-08-26T19:38:00.141Z,25.72
2022-08-26T19:40:03.347Z,25.69
2022-08-26T19:42:07.726Z,25.70
2022-08-26T19:44:33.684Z,25.78
2022-08-26T19:48:46.587Z,25.64
2022-08-26T19:50:49.468Z,25.55
2022-08-26T19:52:52.326Z,25.37
2022-08-26T19:54:55.228Z,25.38
2022-08-26T19:56:58.223Z,25.44
2022-08-26T19:59:02.487Z,25.49
2022-08-26T20:01:05.434Z,25.42
2022-08-26T20:03:10.702Z,25.46
2022-08-26T20:05:20.836Z,25.64
2022-08-26T20:07:23.957Z,25.61
2022-08-26T20:09:26.832Z,25.59
2022-08-26T20:11:29.867Z,25.64
2022-08-26T20:13:33.339Z,25.79
2022-08-26T20:15:37.709Z,25.65
2022-08-26T20:17:41.467Z,25.58
2022-08-26T20:20:01.638Z,25.64
2022-08-26T20:22:04.858Z,25.53
2022-08-26T20:24:11.008Z,25.50
2022-08-26T20:26:14.015Z,25.58
2022-08-26T20:28:16.923Z,25.63
2022-08-26T20:30:20.059Z,25.57
2022-08-26T20:32:25.270Z,25.65
2022-08-26T20:34:28.293Z,25.70
2022-08-26T20:36:31.318Z,25.79
2022-08-26T20:38:34.425Z,25.65
2022-08-26T20:40:37.557Z,25.66
2022-08-26T20:42:40.660Z,25.48
2022-08-26T20:44:47.365Z,25.44
2022-08-26T20:46:59.735Z,25.33
2022-08-26T20:49:05.962Z,25.33
2022-08-26T20:51:11.588Z,25.40
2022-08-26T20:53:14.867Z,25.31
2022-08-26T20:55:18.580Z,25.34
2022-08-26T20:57:22.236Z,25.28
2022-08-26T20:59:26.340Z,25.14
2022-08-26T21:01:34.844Z,25.18
2022-08-26T21:03:37.914Z,25.13
2022-08-26T21:05:42.514Z,24.99
2022-08-26T21:07:45.551Z,25.03
2022-08-26T21:09:48.613Z,25.03
2022-08-26T21:11:55.744Z,25.18
2022-08-26T21:14:06.951Z,25.20
2022-08-26T21:16:19.467Z,25.00
2022-08-26T21:18:22.637Z,24.93
2022-08-26T21:20:25.779Z,24.87
2022-08-26T21:22:30.393Z,24.98
2022-08-26T21:24:34.719Z,25.04
2022-08-26T21:26:38.238Z,24.99
2022-08-26T21:28:43.724Z,25.05
2022-08-26T21:30:46.885Z,25.12
2022-08-26T21:32:50.306Z,25.07
2022-08-26T21:34:55.878Z,25.05
2022-08-26T21:36:59.080Z,24.97
2022-08-26T21:39:05.985Z,24.92
2022-08-26T21:41:14.734Z,24.83
2022-08-26T21:43:28.111Z,24.84
2022-08-26T21:45:41.315Z,24.83
2022-08-26T21:47:44.823Z,24.81
2022-08-26T21:49:47.814Z,24.75
2022-08-26T21:51:50.752Z,24.82
2022-08-26T21:53:53.784Z,24.87
2022-08-26T21:55:58.180Z,24.93
2022-08-26T21:58:01.086Z,24.92
2022-08-26T22:00:05.549Z,24.91
2022-08-26T22:02:08.641Z,24.99
2022-08-26T22:04:11.976Z,24.81
2022-08-26T22:06:14.966Z,24.73
2022-08-26T22:08:19.792Z,24.67
2022-08-26T22:10:22.746Z,24.61
2022-08-26T22:12:27.163Z,24.63
2022-08-26T22:14:31.002Z,24.68
2022-08-26T22:16:34.132Z,24.77
2022-08-26T22:18:38.141Z,24.79
2022-08-26T22:20:41.126Z,24.66
2022-08-26T22:22:45.051Z,24.61
2022-08-26T22:24:48.124Z,24.67
2022-08-26T22:26:51.804Z,24.73
2022-08-26T22:28:59.156Z,24.70
2022-08-26T22:31:03.039Z,24.73
2022-08-26T22:33:07.216Z,24.69
2022-08-26T22:35:28.085Z,24.75
2022-08-26T22:37:32.330Z,24.82
2022-08-26T22:39:35.335Z,24.88
2022-08-26T22:41:38.274Z,24.89
2022-08-26T22:43:41.891Z,24.78
2022-08-26T22:45:48.023Z,24.82
2022-08-26T22:47:51.104Z,24.84
2022-08-26T22:49:53.983Z,24.81
2022-08-26T22:51:57.552Z,24.88
2022-08-26T22:54:00.570Z,24.67
2022-08-26T22:56:03.932Z,24.63
2022-08-26T22:58:07.902Z,24.45
2022-08-26T23:00:13.852Z,24.47
2022-08-26T23:02:18.249Z,24.42
2022-08-26T23:04:21.300Z,24.47
2022-08-26T23:06:24.161Z,24.43
2022-08-26T23:08:27.662Z,24.31
2022-08-26T23:10:30.700Z,24.28
2022-08-26T23:12:34.120Z,24.22
2022-08-26T23:14:37.295Z,24.10
2022-08-26T23:16:41.740Z,24.11
2022-08-26T23:18:45.979Z,24.18
2022-08-26T23:20:48.811Z,24.24
2022-08-26T23:22:51.942Z,24.15
2022-08-26T23:24:54.839Z,24.20
2022-08-26T23:26:58.537Z,24.17
2022-08-26T23:29:01.743Z,24.28
2022-08-26T23:31:05.279Z,24.13
2022-08-26T23:33:08.186Z,24.01
2022-08-26T23:35:14.339Z,23.99
2022-08-26T23:37:19.514Z,23.94
2022-08-26T23:39:22.888Z,24.10
2022-08-26T23:41:25.815Z,23.94
2022-08-26T23:43:29.381Z,23.89
2022-08-26T23:45:32.853Z,23.96
2022-08-26T23:47:36.381Z,23.92
2022-08-26T23:49:39.251Z,23.94
2022-08-26T23:52:00.996Z,23.95
2022-08-26T23:54:03.792Z,23.69
2022-08-26T23:56:14.888Z,23.62
2022-08-26T23:58:19.420Z,23.59
